sensor_id;sensor_type;location;lat;lon;timestamp;P1;durP1;ratioP1;P2;durP2;ratioP2
14872;SDS011;7528;48.576;19.122;2022-11-20T00:04:13;33.63;;;20.83;;
14872;SDS011;7528;48.576;19.122;2022-11-20T00:09:17;31.60;;;19.30;;
14872;SDS011;7528;48.576;19.122;2022-11-20T00:14:19;33.57;;;18.73;;
14872;SDS011;7528;48.576;19.122;2022-11-20T00:19:23;31.47;;;19.47;;
14872;SDS011;7528;48.576;19.122;2022-11-20T00:24:26;31.70;;;19.23;;
14872;SDS011;7528;48.576;19.122;2022-11-20T00:29:33;30.37;;;18.83;;
14872;SDS011;7528;48.576;19.122;2022-11-20T00:34:37;34.23;;;21.47;;
14872;SDS011;7528;48.576;19.122;2022-11-20T00:39:40;32.33;;;19.37;;
14872;SDS011;7528;48.576;19.122;2022-11-20T00:44:53;30.63;;;19.83;;
14872;SDS011;7528;48.576;19.122;2022-11-20T00:49:58;31.30;;;19.40;;
14872;SDS011;7528;48.576;19.122;2022-11-20T00:55:03;28.70;;;18.63;;
14872;SDS011;7528;48.576;19.122;2022-11-20T01:00:07;29.00;;;19.00;;
14872;SDS011;7528;48.576;19.122;2022-11-20T01:05:15;32.37;;;20.07;;
14872;SDS011;7528;48.576;19.122;2022-11-20T01:10:18;29.70;;;18.43;;
14872;SDS011;7528;48.576;19.122;2022-11-20T01:15:21;33.53;;;20.23;;
14872;SDS011;7528;48.576;19.122;2022-11-20T01:20:25;28.90;;;19.03;;
14872;SDS011;7528;48.576;19.122;2022-11-20T01:25:28;31.27;;;19.27;;
14872;SDS011;7528;48.576;19.122;2022-11-20T01:30:32;32.17;;;19.53;;
14872;SDS011;7528;48.576;19.122;2022-11-20T01:35:39;32.20;;;19.80;;
14872;SDS011;7528;48.576;19.122;2022-11-20T01:40:42;31.63;;;19.63;;
14872;SDS011;7528;48.576;19.122;2022-11-20T01:45:59;29.13;;;18.20;;
14872;SDS011;7528;48.576;19.122;2022-11-20T01:51:19;30.77;;;19.43;;
14872;SDS011;7528;48.576;19.122;2022-11-20T01:56:25;27.53;;;17.53;;
14872;SDS011;7528;48.576;19.122;2022-11-20T02:01:30;31.50;;;19.30;;
14872;SDS011;7528;48.576;19.122;2022-11-20T02:06:38;31.77;;;19.60;;
14872;SDS011;7528;48.576;19.122;2022-11-20T02:11:44;30.47;;;18.77;;
14872;SDS011;7528;48.576;19.122;2022-11-20T02:16:58;31.00;;;19.83;;
14872;SDS011;7528;48.576;19.122;2022-11-20T02:22:04;31.67;;;19.67;;
14872;SDS011;7528;48.576;19.122;2022-11-20T02:27:14;29.77;;;19.03;;
14872;SDS011;7528;48.576;19.122;2022-11-20T02:32:19;28.83;;;19.43;;
14872;SDS011;7528;48.576;19.122;2022-11-20T02:37:22;32.83;;;19.93;;
14872;SDS011;7528;48.576;19.122;2022-11-20T02:42:32;31.87;;;19.67;;
14872;SDS011;7528;48.576;19.122;2022-11-20T02:47:35;35.20;;;21.50;;
14872;SDS011;7528;48.576;19.122;2022-11-20T02:52:38;31.80;;;20.47;;
14872;SDS011;7528;48.576;19.122;2022-11-20T02:57:43;31.27;;;19.20;;
14872;SDS011;7528;48.576;19.122;2022-11-20T03:02:46;29.40;;;19.03;;
14872;SDS011;7528;48.576;19.122;2022-11-20T03:07:49;33.03;;;19.50;;
14872;SDS011;7528;48.576;19.122;2022-11-20T03:12:54;31.50;;;20.00;;
14872;SDS011;7528;48.576;19.122;2022-11-20T03:17:57;29.83;;;19.60;;
14872;SDS011;7528;48.576;19.122;2022-11-20T03:23:00;31.37;;;19.37;;
14872;SDS011;7528;48.576;19.122;2022-11-20T03:28:05;33.60;;;19.93;;
14872;SDS011;7528;48.576;19.122;2022-11-20T03:33:08;30.50;;;19.17;;
14872;SDS011;7528;48.576;19.122;2022-11-20T03:38:12;28.87;;;18.73;;
14872;SDS011;7528;48.576;19.122;2022-11-20T03:43:17;30.10;;;19.93;;
14872;SDS011;7528;48.576;19.122;2022-11-20T03:48:20;30.87;;;19.60;;
14872;SDS011;7528;48.576;19.122;2022-11-20T03:53:23;31.43;;;20.00;;
14872;SDS011;7528;48.576;19.122;2022-11-20T03:58:27;33.50;;;20.47;;
14872;SDS011;7528;48.576;19.122;2022-11-20T04:03:30;32.27;;;20.30;;
14872;SDS011;7528;48.576;19.122;2022-11-20T04:08:33;32.87;;;20.80;;
14872;SDS011;7528;48.576;19.122;2022-11-20T04:13:37;32.63;;;20.67;;
14872;SDS011;7528;48.576;19.122;2022-11-20T04:18:42;33.10;;;20.57;;
14872;SDS011;7528;48.576;19.122;2022-11-20T04:23:45;31.17;;;19.37;;
14872;SDS011;7528;48.576;19.122;2022-11-20T04:28:49;32.03;;;20.17;;
14872;SDS011;7528;48.576;19.122;2022-11-20T04:33:52;32.07;;;19.57;;
14872;SDS011;7528;48.576;19.122;2022-11-20T04:38:56;33.53;;;20.10;;
14872;SDS011;7528;48.576;19.122;2022-11-20T04:44:02;31.20;;;20.20;;
14872;SDS011;7528;48.576;19.122;2022-11-20T04:49:07;31.23;;;19.73;;
14872;SDS011;7528;48.576;19.122;2022-11-20T04:54:10;31.73;;;19.90;;
14872;SDS011;7528;48.576;19.122;2022-11-20T04:59:15;32.90;;;21.03;;
14872;SDS011;7528;48.576;19.122;2022-11-20T05:04:18;32.83;;;21.03;;
14872;SDS011;7528;48.576;19.122;2022-11-20T05:09:21;32.20;;;20.43;;
14872;SDS011;7528;48.576;19.122;2022-11-20T05:14:25;30.87;;;20.73;;
14872;SDS011;7528;48.576;19.122;2022-11-20T05:19:28;29.30;;;19.47;;
14872;SDS011;7528;48.576;19.122;2022-11-20T05:24:31;31.27;;;21.23;;
14872;SDS011;7528;48.576;19.122;2022-11-20T05:29:35;31.13;;;19.33;;
14872;SDS011;7528;48.576;19.122;2022-11-20T05:34:37;31.80;;;20.07;;
14872;SDS011;7528;48.576;19.122;2022-11-20T05:39:40;33.10;;;20.40;;
14872;SDS011;7528;48.576;19.122;2022-11-20T05:44:49;30.63;;;20.27;;
14872;SDS011;7528;48.576;19.122;2022-11-20T05:49:52;33.17;;;20.20;;
14872;SDS011;7528;48.576;19.122;2022-11-20T05:55:09;33.33;;;20.30;;
14872;SDS011;7528;48.576;19.122;2022-11-20T06:05:20;31.60;;;20.23;;
14872;SDS011;7528;48.576;19.122;2022-11-20T06:10:23;29.80;;;19.60;;
14872;SDS011;7528;48.576;19.122;2022-11-20T06:15:28;33.87;;;21.03;;
14872;SDS011;7528;48.576;19.122;2022-11-20T06:20:31;32.13;;;20.77;;
14872;SDS011;7528;48.576;19.122;2022-11-20T06:25:36;30.00;;;19.27;;
14872;SDS011;7528;48.576;19.122;2022-11-20T06:30:45;32.40;;;20.23;;
14872;SDS011;7528;48.576;19.122;2022-11-20T06:35:48;29.53;;;19.67;;
14872;SDS011;7528;48.576;19.122;2022-11-20T06:40:51;31.00;;;19.63;;
14872;SDS011;7528;48.576;19.122;2022-11-20T06:45:56;30.97;;;19.80;;
14872;SDS011;7528;48.576;19.122;2022-11-20T06:51:00;32.47;;;21.83;;
14872;SDS011;7528;48.576;19.122;2022-11-20T06:56:06;33.57;;;20.50;;
14872;SDS011;7528;48.576;19.122;2022-11-20T07:01:13;36.30;;;22.83;;
14872;SDS011;7528;48.576;19.122;2022-11-20T07:06:17;30.87;;;20.17;;
14872;SDS011;7528;48.576;19.122;2022-11-20T07:11:19;31.53;;;19.73;;
14872;SDS011;7528;48.576;19.122;2022-11-20T07:16:24;31.10;;;19.60;;
14872;SDS011;7528;48.576;19.122;2022-11-20T07:21:29;29.67;;;19.50;;
14872;SDS011;7528;48.576;19.122;2022-11-20T07:26:32;28.73;;;19.10;;
14872;SDS011;7528;48.576;19.122;2022-11-20T07:31:37;30.87;;;18.50;;
14872;SDS011;7528;48.576;19.122;2022-11-20T07:36:40;27.97;;;18.27;;
14872;SDS011;7528;48.576;19.122;2022-11-20T07:41:48;29.60;;;19.27;;
14872;SDS011;7528;48.576;19.122;2022-11-20T07:46:53;31.63;;;19.00;;
14872;SDS011;7528;48.576;19.122;2022-11-20T07:51:55;27.60;;;18.17;;
14872;SDS011;7528;48.576;19.122;2022-11-20T07:56:58;28.43;;;18.47;;
14872;SDS011;7528;48.576;19.122;2022-11-20T08:02:02;27.50;;;18.93;;
14872;SDS011;7528;48.576;19.122;2022-11-20T08:07:05;27.50;;;18.50;;
14872;SDS011;7528;48.576;19.122;2022-11-20T08:12:16;28.23;;;18.47;;
14872;SDS011;7528;48.576;19.122;2022-11-20T08:17:39;25.77;;;17.53;;
14872;SDS011;7528;48.576;19.122;2022-11-20T08:22:41;25.73;;;17.63;;
14872;SDS011;7528;48.576;19.122;2022-11-20T08:27:46;27.53;;;18.60;;
14872;SDS011;7528;48.576;19.122;2022-11-20T08:32:50;26.70;;;18.67;;
14872;SDS011;7528;48.576;19.122;2022-11-20T08:37:53;29.40;;;18.90;;
14872;SDS011;7528;48.576;19.122;2022-11-20T08:42:55;24.40;;;17.53;;
14872;SDS011;7528;48.576;19.122;2022-11-20T08:48:01;26.60;;;18.27;;
14872;SDS011;7528;48.576;19.122;2022-11-20T08:53:04;24.83;;;17.83;;
14872;SDS011;7528;48.576;19.122;2022-11-20T08:58:07;25.47;;;17.53;;
14872;SDS011;7528;48.576;19.122;2022-11-20T09:03:11;23.33;;;16.53;;
14872;SDS011;7528;48.576;19.122;2022-11-20T09:08:14;23.30;;;15.97;;
14872;SDS011;7528;48.576;19.122;2022-11-20T09:13:17;22.97;;;15.50;;
14872;SDS011;7528;48.576;19.122;2022-11-20T09:18:21;21.63;;;15.60;;
14872;SDS011;7528;48.576;19.122;2022-11-20T09:23:26;21.43;;;16.13;;
14872;SDS011;7528;48.576;19.122;2022-11-20T09:28:33;23.37;;;15.97;;
14872;SDS011;7528;48.576;19.122;2022-11-20T09:33:37;23.17;;;16.50;;
14872;SDS011;7528;48.576;19.122;2022-11-20T09:38:40;19.97;;;15.27;;
14872;SDS011;7528;48.576;19.122;2022-11-20T09:43:45;22.40;;;16.23;;
14872;SDS011;7528;48.576;19.122;2022-11-20T09:54:31;19.77;;;14.23;;
14872;SDS011;7528;48.576;19.122;2022-11-20T09:59:38;21.13;;;15.33;;
14872;SDS011;7528;48.576;19.122;2022-11-20T10:04:45;20.80;;;13.77;;
14872;SDS011;7528;48.576;19.122;2022-11-20T10:09:55;18.90;;;13.43;;
14872;SDS011;7528;48.576;19.122;2022-11-20T10:15:10;20.30;;;14.50;;
14872;SDS011;7528;48.576;19.122;2022-11-20T10:20:27;17.63;;;12.80;;
14872;SDS011;7528;48.576;19.122;2022-11-20T10:25:37;17.03;;;11.80;;
14872;SDS011;7528;48.576;19.122;2022-11-20T10:30:41;18.17;;;13.17;;
14872;SDS011;7528;48.576;19.122;2022-11-20T10:35:50;18.00;;;12.80;;
14872;SDS011;7528;48.576;19.122;2022-11-20T10:41:00;16.70;;;13.85;;
14872;SDS011;7528;48.576;19.122;2022-11-20T10:46:19;17.08;;;15.27;;
14872;SDS011;7528;48.576;19.122;2022-11-20T10:51:30;14.50;;;13.00;;
14872;SDS011;7528;48.576;19.122;2022-11-20T10:56:38;15.48;;;13.48;;
14872;SDS011;7528;48.576;19.122;2022-11-20T11:01:43;17.70;;;14.85;;
14872;SDS011;7528;48.576;19.122;2022-11-20T11:06:48;16.10;;;12.93;;
14872;SDS011;7528;48.576;19.122;2022-11-20T11:11:51;15.43;;;13.55;;
14872;SDS011;7528;48.576;19.122;2022-11-20T11:16:54;15.00;;;11.98;;
14872;SDS011;7528;48.576;19.122;2022-11-20T11:21:59;16.25;;;12.77;;
14872;SDS011;7528;48.576;19.122;2022-11-20T11:27:03;15.77;;;13.20;;
14872;SDS011;7528;48.576;19.122;2022-11-20T11:32:13;16.02;;;13.35;;
14872;SDS011;7528;48.576;19.122;2022-11-20T11:37:20;19.13;;;13.87;;
14872;SDS011;7528;48.576;19.122;2022-11-20T11:42:23;17.57;;;14.17;;
14872;SDS011;7528;48.576;19.122;2022-11-20T11:47:28;19.47;;;14.53;;
14872;SDS011;7528;48.576;19.122;2022-11-20T11:52:34;20.83;;;14.87;;
14872;SDS011;7528;48.576;19.122;2022-11-20T11:57:45;23.77;;;16.23;;
14872;SDS011;7528;48.576;19.122;2022-11-20T12:02:54;19.93;;;15.97;;
14872;SDS011;7528;48.576;19.122;2022-11-20T12:08:05;20.93;;;15.90;;
14872;SDS011;7528;48.576;19.122;2022-11-20T12:13:15;20.33;;;16.13;;
14872;SDS011;7528;48.576;19.122;2022-11-20T12:18:25;21.73;;;16.63;;
14872;SDS011;7528;48.576;19.122;2022-11-20T12:23:33;20.93;;;16.23;;
14872;SDS011;7528;48.576;19.122;2022-11-20T12:28:44;22.20;;;17.20;;
14872;SDS011;7528;48.576;19.122;2022-11-20T12:34:02;21.40;;;17.83;;
14872;SDS011;7528;48.576;19.122;2022-11-20T12:39:31;23.20;;;17.13;;
14872;SDS011;7528;48.576;19.122;2022-11-20T12:44:45;24.27;;;17.63;;
14872;SDS011;7528;48.576;19.122;2022-11-20T12:50:13;21.43;;;16.20;;
14872;SDS011;7528;48.576;19.122;2022-11-20T12:55:28;23.37;;;16.80;;
14872;SDS011;7528;48.576;19.122;2022-11-20T13:00:38;24.17;;;17.57;;
14872;SDS011;7528;48.576;19.122;2022-11-20T13:05:59;20.17;;;15.43;;
14872;SDS011;7528;48.576;19.122;2022-11-20T13:11:09;22.83;;;16.97;;
14872;SDS011;7528;48.576;19.122;2022-11-20T13:16:19;21.77;;;17.07;;
14872;SDS011;7528;48.576;19.122;2022-11-20T13:21:36;24.07;;;18.30;;
14872;SDS011;7528;48.576;19.122;2022-11-20T13:26:45;21.97;;;17.20;;
14872;SDS011;7528;48.576;19.122;2022-11-20T13:31:48;23.87;;;17.17;;
14872;SDS011;7528;48.576;19.122;2022-11-20T13:36:51;22.87;;;16.80;;
14872;SDS011;7528;48.576;19.122;2022-11-20T13:41:59;27.00;;;20.40;;
14872;SDS011;7528;48.576;19.122;2022-11-20T13:47:03;22.03;;;16.30;;
14872;SDS011;7528;48.576;19.122;2022-11-20T13:52:35;24.73;;;18.67;;
14872;SDS011;7528;48.576;19.122;2022-11-20T14:03:29;23.67;;;18.77;;
14872;SDS011;7528;48.576;19.122;2022-11-20T14:08:36;22.03;;;17.30;;
14872;SDS011;7528;48.576;19.122;2022-11-20T14:13:54;21.70;;;16.50;;
14872;SDS011;7528;48.576;19.122;2022-11-20T14:24:30;26.07;;;20.07;;
14872;SDS011;7528;48.576;19.122;2022-11-20T14:29:35;22.27;;;18.03;;
14872;SDS011;7528;48.576;19.122;2022-11-20T14:34:41;24.67;;;18.43;;
14872;SDS011;7528;48.576;19.122;2022-11-20T14:39:48;43.07;;;28.57;;
14872;SDS011;7528;48.576;19.122;2022-11-20T14:44:56;28.40;;;19.07;;
14872;SDS011;7528;48.576;19.122;2022-11-20T14:50:00;42.17;;;28.63;;
14872;SDS011;7528;48.576;19.122;2022-11-20T14:55:03;78.40;;;52.63;;
14872;SDS011;7528;48.576;19.122;2022-11-20T15:00:17;35.03;;;25.57;;
14872;SDS011;7528;48.576;19.122;2022-11-20T15:05:25;24.97;;;18.97;;
14872;SDS011;7528;48.576;19.122;2022-11-20T15:10:45;26.03;;;17.97;;
14872;SDS011;7528;48.576;19.122;2022-11-20T15:15:51;25.43;;;18.00;;
14872;SDS011;7528;48.576;19.122;2022-11-20T15:20:56;37.40;;;25.53;;
14872;SDS011;7528;48.576;19.122;2022-11-20T15:26:04;36.17;;;24.03;;
14872;SDS011;7528;48.576;19.122;2022-11-20T15:31:09;30.93;;;21.93;;
14872;SDS011;7528;48.576;19.122;2022-11-20T15:36:14;27.97;;;20.63;;
14872;SDS011;7528;48.576;19.122;2022-11-20T15:41:17;26.57;;;19.03;;
14872;SDS011;7528;48.576;19.122;2022-11-20T15:46:23;25.97;;;18.80;;
14872;SDS011;7528;48.576;19.122;2022-11-20T15:51:29;37.83;;;23.53;;
14872;SDS011;7528;48.576;19.122;2022-11-20T15:56:34;61.33;;;35.20;;
14872;SDS011;7528;48.576;19.122;2022-11-20T16:01:39;106.87;;;53.10;;
14872;SDS011;7528;48.576;19.122;2022-11-20T16:06:41;50.57;;;28.07;;
14872;SDS011;7528;48.576;19.122;2022-11-20T16:11:44;42.70;;;27.23;;
14872;SDS011;7528;48.576;19.122;2022-11-20T16:16:48;36.83;;;24.43;;
14872;SDS011;7528;48.576;19.122;2022-11-20T16:21:51;37.53;;;25.97;;
14872;SDS011;7528;48.576;19.122;2022-11-20T16:26:54;254.87;;;91.17;;
14872;SDS011;7528;48.576;19.122;2022-11-20T16:31:58;247.20;;;94.40;;
14872;SDS011;7528;48.576;19.122;2022-11-20T16:37:01;117.50;;;52.37;;
14872;SDS011;7528;48.576;19.122;2022-11-20T16:42:04;228.03;;;81.13;;
14872;SDS011;7528;48.576;19.122;2022-11-20T16:47:08;137.57;;;53.97;;
14872;SDS011;7528;48.576;19.122;2022-11-20T16:52:10;84.00;;;39.37;;
14872;SDS011;7528;48.576;19.122;2022-11-20T16:57:13;43.43;;;27.83;;
14872;SDS011;7528;48.576;19.122;2022-11-20T17:02:17;44.73;;;28.27;;
14872;SDS011;7528;48.576;19.122;2022-11-20T17:07:20;37.53;;;25.97;;
14872;SDS011;7528;48.576;19.122;2022-11-20T17:12:23;76.80;;;39.37;;
14872;SDS011;7528;48.576;19.122;2022-11-20T17:17:27;102.57;;;51.57;;
14872;SDS011;7528;48.576;19.122;2022-11-20T17:22:30;48.30;;;31.53;;
14872;SDS011;7528;48.576;19.122;2022-11-20T17:27:33;38.27;;;25.30;;
14872;SDS011;7528;48.576;19.122;2022-11-20T17:32:37;48.97;;;27.90;;
14872;SDS011;7528;48.576;19.122;2022-11-20T17:37:45;60.67;;;35.40;;
14872;SDS011;7528;48.576;19.122;2022-11-20T17:42:47;77.70;;;48.17;;
14872;SDS011;7528;48.576;19.122;2022-11-20T17:47:51;60.73;;;39.47;;
14872;SDS011;7528;48.576;19.122;2022-11-20T17:52:54;70.23;;;43.70;;
14872;SDS011;7528;48.576;19.122;2022-11-20T17:57:56;49.97;;;30.50;;
14872;SDS011;7528;48.576;19.122;2022-11-20T18:03:03;65.57;;;42.27;;
14872;SDS011;7528;48.576;19.122;2022-11-20T18:08:06;44.80;;;31.27;;
14872;SDS011;7528;48.576;19.122;2022-11-20T18:13:09;44.00;;;29.23;;
14872;SDS011;7528;48.576;19.122;2022-11-20T18:18:13;48.20;;;31.00;;
14872;SDS011;7528;48.576;19.122;2022-11-20T18:23:16;47.80;;;31.50;;
14872;SDS011;7528;48.576;19.122;2022-11-20T18:28:20;31.20;;;21.00;;
14872;SDS011;7528;48.576;19.122;2022-11-20T18:33:25;26.87;;;18.23;;
14872;SDS011;7528;48.576;19.122;2022-11-20T18:38:27;31.80;;;21.23;;
14872;SDS011;7528;48.576;19.122;2022-11-20T18:43:30;26.37;;;19.67;;
14872;SDS011;7528;48.576;19.122;2022-11-20T18:48:52;28.03;;;20.13;;
14872;SDS011;7528;48.576;19.122;2022-11-20T18:53:54;35.60;;;23.00;;
14872;SDS011;7528;48.576;19.122;2022-11-20T18:58:57;32.60;;;24.33;;
14872;SDS011;7528;48.576;19.122;2022-11-20T19:04:06;38.20;;;27.60;;
14872;SDS011;7528;48.576;19.122;2022-11-20T19:09:10;34.63;;;25.80;;
14872;SDS011;7528;48.576;19.122;2022-11-20T19:14:14;33.03;;;23.20;;
14872;SDS011;7528;48.576;19.122;2022-11-20T19:19:18;29.03;;;19.90;;
14872;SDS011;7528;48.576;19.122;2022-11-20T19:24:20;30.57;;;22.30;;
14872;SDS011;7528;48.576;19.122;2022-11-20T19:29:23;44.67;;;33.33;;
14872;SDS011;7528;48.576;19.122;2022-11-20T19:34:29;37.63;;;29.37;;
14872;SDS011;7528;48.576;19.122;2022-11-20T19:39:32;34.67;;;26.63;;
14872;SDS011;7528;48.576;19.122;2022-11-20T19:44:36;41.00;;;27.93;;
14872;SDS011;7528;48.576;19.122;2022-11-20T19:49:41;136.97;;;53.53;;
14872;SDS011;7528;48.576;19.122;2022-11-20T19:54:44;62.43;;;31.30;;
14872;SDS011;7528;48.576;19.122;2022-11-20T19:59:46;27.00;;;18.00;;
14872;SDS011;7528;48.576;19.122;2022-11-20T20:04:51;23.43;;;17.17;;
14872;SDS011;7528;48.576;19.122;2022-11-20T20:09:54;22.73;;;17.07;;
14872;SDS011;7528;48.576;19.122;2022-11-20T20:14:57;27.07;;;19.27;;
14872;SDS011;7528;48.576;19.122;2022-11-20T20:20:01;29.57;;;21.60;;
14872;SDS011;7528;48.576;19.122;2022-11-20T20:25:04;53.23;;;40.17;;
14872;SDS011;7528;48.576;19.122;2022-11-20T20:30:07;37.43;;;26.60;;
14872;SDS011;7528;48.576;19.122;2022-11-20T20:35:13;32.47;;;22.67;;
14872;SDS011;7528;48.576;19.122;2022-11-20T20:40:15;44.30;;;25.43;;
14872;SDS011;7528;48.576;19.122;2022-11-20T20:45:19;31.17;;;21.93;;
14872;SDS011;7528;48.576;19.122;2022-11-20T20:50:23;57.27;;;38.33;;
14872;SDS011;7528;48.576;19.122;2022-11-20T20:55:25;37.07;;;22.00;;
14872;SDS011;7528;48.576;19.122;2022-11-20T21:00:28;37.83;;;25.90;;
14872;SDS011;7528;48.576;19.122;2022-11-20T21:05:34;36.77;;;26.43;;
14872;SDS011;7528;48.576;19.122;2022-11-20T21:10:37;63.03;;;43.30;;
14872;SDS011;7528;48.576;19.122;2022-11-20T21:15:40;50.07;;;32.83;;
14872;SDS011;7528;48.576;19.122;2022-11-20T21:20:45;42.13;;;28.47;;
14872;SDS011;7528;48.576;19.122;2022-11-20T21:26:06;38.10;;;25.73;;
14872;SDS011;7528;48.576;19.122;2022-11-20T21:31:11;44.57;;;29.07;;
14872;SDS011;7528;48.576;19.122;2022-11-20T21:36:17;62.40;;;39.53;;
14872;SDS011;7528;48.576;19.122;2022-11-20T21:41:21;70.90;;;45.33;;
14872;SDS011;7528;48.576;19.122;2022-11-20T21:46:26;34.87;;;23.87;;
14872;SDS011;7528;48.576;19.122;2022-11-20T21:51:30;28.50;;;19.67;;
14872;SDS011;7528;48.576;19.122;2022-11-20T21:56:32;38.97;;;24.83;;
14872;SDS011;7528;48.576;19.122;2022-11-20T22:01:35;39.20;;;27.20;;
14872;SDS011;7528;48.576;19.122;2022-11-20T22:06:40;38.47;;;24.30;;
14872;SDS011;7528;48.576;19.122;2022-11-20T22:11:43;31.10;;;20.33;;
14872;SDS011;7528;48.576;19.122;2022-11-20T22:16:46;32.17;;;21.13;;
14872;SDS011;7528;48.576;19.122;2022-11-20T22:21:50;28.67;;;19.50;;
14872;SDS011;7528;48.576;19.122;2022-11-20T22:26:53;27.73;;;19.30;;
14872;SDS011;7528;48.576;19.122;2022-11-20T22:31:56;27.83;;;19.27;;
14872;SDS011;7528;48.576;19.122;2022-11-20T22:37:00;27.43;;;18.70;;
14872;SDS011;7528;48.576;19.122;2022-11-20T22:42:03;30.33;;;20.13;;
14872;SDS011;7528;48.576;19.122;2022-11-20T22:47:05;46.10;;;30.03;;
14872;SDS011;7528;48.576;19.122;2022-11-20T22:52:09;33.60;;;21.83;;
14872;SDS011;7528;48.576;19.122;2022-11-20T22:57:12;28.70;;;20.50;;
14872;SDS011;7528;48.576;19.122;2022-11-20T23:02:15;40.53;;;28.77;;
14872;SDS011;7528;48.576;19.122;2022-11-20T23:07:18;42.07;;;28.50;;
14872;SDS011;7528;48.576;19.122;2022-11-20T23:12:21;36.70;;;25.23;;
14872;SDS011;7528;48.576;19.122;2022-11-20T23:17:24;53.40;;;33.40;;
14872;SDS011;7528;48.576;19.122;2022-11-20T23:22:28;81.73;;;53.77;;
14872;SDS011;7528;48.576;19.122;2022-11-20T23:27:32;82.60;;;53.33;;
14872;SDS011;7528;48.576;19.122;2022-11-20T23:32:35;38.67;;;26.90;;
14872;SDS011;7528;48.576;19.122;2022-11-20T23:37:39;41.07;;;26.17;;
14872;SDS011;7528;48.576;19.122;2022-11-20T23:42:42;35.53;;;23.67;;
14872;SDS011;7528;48.576;19.122;2022-11-20T23:47:58;33.63;;;22.50;;
14872;SDS011;7528;48.576;19.122;2022-11-20T23:53:02;33.37;;;23.03;;
14872;SDS011;7528;48.576;19.122;2022-11-20T23:58:06;36.53;;;26.07;;
